Terminal Aerodrome Forecast
Issued by NWS

Home | Current Version | Previous Version | Text Only | Print | Product List | Glossary Off
Versions: 1 2 3 4 5 6 7 8 9 10 11 12 13 14 15 16

000
FTUS43 KMPX 170400 AAB
TAFAXN
TAF AMD
KAXN 170402Z 1704/1724 03015G23KT P6SM OVC019
     FM170430 02015G20KT P6SM SCT020
     FM170500 35010KT P6SM SKC
     FM172000 32009KT P6SM BKN250=

USA.gov is the U.S. government's official web portal to all federal, state and local government web resources and services.